Terminal Aerodrome Forecast
Issued by NWS

Home | Current Version | Previous Version | Text Only | Print | Product List | Glossary On
Versions: 1 2 3 4 5 6 7 8 9 10 11 12 13 14 15 16 17 18 19 20
000
FTUS41 KPBZ 301201 RRA
TAFLBE
TAF
KLBE 301201Z 3012/3112 14003KT P6SM OVC120
     FM301500 20005KT 5SM -SHRA BKN060
     FM302300 18003KT P6SM VCSH BKN080
     FM310900 19003KT P6SM BKN200=

USA.gov is the U.S. government's official web portal to all federal, state and local government web resources and services.